Big Bear Station Historical Data
Daily Summary for June 1, 2017 Units:  English    Metric   Both
« Previous Day
Next Day »
Daily Weekly Monthly Yearly Custom
  High: Low: Average:
Temperature: 73.4 °F 39.7 °F 56.1 °F
Dew Point: 46.2 °F 32.0 °F 39.4 °F
Humidity: 87 % 31 % 57 %
Wind Speed: 6.3 mph 0.0 mph 2 mph
Wind Gust: -999.0 mph - -
Wind:- - WNW
Pressure: 30.13 in 30.03 in -
Precipitation: 0.00 in    
Historical Graphs
 
 
Tabular Data for June 1, 2017
Time Temperature Dew Point Pressure Wind Wind Speed Wind Gust Humidity Rainfall Rate (Hourly)
00:10 47.1 °F 32.2 °F 30.05 in SSE 1.7 mph -999.0 mph 56 % 0 in
00:26 46.4 °F 32.0 °F 30.05 in South 2.2 mph -999.0 mph 57 % 0 in
00:41 46.2 °F 33.1 °F 30.05 in Calm   -999.0 mph 60 % 0 in
00:56 45.5 °F 33.6 °F 30.04 in Calm   -999.0 mph 63 % 0 in
01:11 44.8 °F 33.4 °F 30.04 in South 2.2 mph -999.0 mph 64 % 0 in
01:27 44.4 °F 33.8 °F 30.05 in Calm   -999.0 mph 66 % 0 in
01:42 44.2 °F 34.3 °F 30.04 in South 1.7 mph -999.0 mph 68 % 0 in
01:57 43.9 °F 33.7 °F 30.04 in Calm   -999.0 mph 67 % 0 in
02:12 43.7 °F 34.2 °F 30.04 in Calm   -999.0 mph 69 % 0 in
02:28 43.3 °F 34.5 °F 30.04 in Calm   -999.0 mph 71 % 0 in
02:43 42.8 °F 34.7 °F 30.03 in Calm   -999.0 mph 73 % 0 in
02:58 42.6 °F 34.6 °F 30.03 in Calm   -999.0 mph 73 % 0 in
03:13 42.4 °F 34.4 °F 30.04 in Calm   -999.0 mph 73 % 0 in
03:28 41.9 °F 34.9 °F 30.04 in Calm   -999.0 mph 76 % 0 in
03:44 41.5 °F 35.8 °F 30.03 in Calm   -999.0 mph 80 % 0 in
03:59 41.9 °F 36.8 °F 30.03 in Calm   -999.0 mph 82 % 0 in
04:14 41.4 °F 36.3 °F 30.03 in Calm   -999.0 mph 82 % 0 in
04:29 40.6 °F 35.2 °F 30.03 in Calm   -999.0 mph 81 % 0 in
04:45 40.6 °F 35.8 °F 30.04 in Calm   -999.0 mph 83 % 0 in
05:00 40.3 °F 36.2 °F 30.04 in Calm   -999.0 mph 85 % 0 in
05:15 40.1 °F 36.0 °F 30.04 in Calm   -999.0 mph 85 % 0 in
05:30 40.1 °F 36.0 °F 30.04 in Calm   -999.0 mph 85 % 0 in
05:45 39.7 °F 35.6 °F 30.05 in Calm   -999.0 mph 85 % 0 in
06:01 39.7 °F 35.3 °F 30.05 in Calm   -999.0 mph 84 % 0 in
06:16 39.9 °F 35.5 °F 30.05 in Calm   -999.0 mph 84 % 0 in
06:31 39.7 °F 35.3 °F 30.05 in Calm   -999.0 mph 84 % 0 in
06:46 40.6 °F 36.4 °F 30.05 in Calm   -999.0 mph 85 % 0 in
07:01 41.2 °F 37.6 °F 30.05 in Calm   -999.0 mph 87 % 0 in
07:17 41.9 °F 38.3 °F 30.05 in Calm   -999.0 mph 87 % 0 in
07:32 43.3 °F 39.4 °F 30.05 in Calm   -999.0 mph 86 % 0 in
07:47 45.1 °F 40.9 °F 30.05 in Calm   -999.0 mph 85 % 0 in
08:02 47.5 °F 41.6 °F 30.06 in Calm   -999.0 mph 80 % 0 in
08:17 49.5 °F 41.9 °F 30.06 in NW 2.2 mph -999.0 mph 75 % 0 in
08:33 51.4 °F 40.0 °F 30.06 in Calm   -999.0 mph 65 % 0 in
08:48 53.8 °F 40.7 °F 30.06 in NNW 3.7 mph -999.0 mph 61 % 0 in
09:04 56.3 °F 41.3 °F 30.07 in NW 2.7 mph -999.0 mph 57 % 0 in
09:19 57.4 °F 37.9 °F 30.07 in NNW 1.7 mph -999.0 mph 48 % 0 in
09:34 58.8 °F 39.7 °F 30.07 in NW 3.2 mph -999.0 mph 49 % 0 in
09:50 60.8 °F 38.2 °F 30.07 in NNW 3.7 mph -999.0 mph 43 % 0 in
10:05 62.1 °F 38.7 °F 30.07 in NW 3.2 mph -999.0 mph 42 % 0 in
10:20 63.0 °F 39.5 °F 30.07 in WNW 2.7 mph -999.0 mph 42 % 0 in
10:35 64.0 °F 37.9 °F 30.07 in NNW 4.7 mph -999.0 mph 38 % 0 in
10:50 64.8 °F 39.3 °F 30.07 in NNW 3.7 mph -999.0 mph 39 % 0 in
11:06 66.0 °F 39.7 °F 30.07 in NW 4.7 mph -999.0 mph 38 % 0 in
11:21 67.5 °F 41.7 °F 30.07 in NW 4.2 mph -999.0 mph 39 % 0 in
11:36 66.2 °F 41.2 °F 30.08 in North 2.7 mph -999.0 mph 40 % 0 in
11:51 64.2 °F 41.2 °F 30.08 in NW 4.7 mph -999.0 mph 43 % 0 in
12:07 63.9 °F 36.4 °F 30.09 in NNW 2.7 mph -999.0 mph 36 % 0 in
12:22 67.6 °F 40.4 °F 30.09 in NW 4.2 mph -999.0 mph 37 % 0 in
12:37 67.5 °F 41.7 °F 30.09 in NW 5.8 mph -999.0 mph 39 % 0 in
12:53 70.0 °F 41.1 °F 30.09 in NW 4.2 mph -999.0 mph 35 % 0 in
13:09 71.1 °F 42.8 °F 30.08 in North 4.7 mph -999.0 mph 36 % 0 in
13:24 72.5 °F 42.5 °F 30.08 in NW 3.7 mph -999.0 mph 34 % 0 in
13:39 72.7 °F 43.5 °F 30.08 in WNW 4.7 mph -999.0 mph 35 % 0 in
13:54 73.0 °F 43.0 °F 30.07 in NW 4.7 mph -999.0 mph 34 % 0 in
14:10 73.4 °F 44.1 °F 30.07 in NW 5.3 mph -999.0 mph 35 % 0 in
14:25 69.6 °F 43.5 °F 30.07 in NNW 4.2 mph -999.0 mph 39 % 0 in
14:40 71.8 °F 46.2 °F 30.07 in NNW 4.7 mph -999.0 mph 40 % 0 in
14:55 72.5 °F 43.3 °F 30.07 in NNW 4.2 mph -999.0 mph 35 % 0 in
15:11 72.1 °F 42.2 °F 30.08 in NNW 6.3 mph -999.0 mph 34 % 0 in
15:26 70.5 °F 43.0 °F 30.07 in NNW 4.7 mph -999.0 mph 37 % 0 in
15:41 68.5 °F 41.9 °F 30.07 in NNW 3.2 mph -999.0 mph 38 % 0 in
15:56 72.1 °F 42.9 °F 30.07 in NNE 4.2 mph -999.0 mph 35 % 0 in
16:12 72.9 °F 44.4 °F 30.07 in North 5.8 mph -999.0 mph 36 % 0 in
16:27 72.9 °F 40.5 °F 30.07 in NW 3.7 mph -999.0 mph 31 % 0 in
16:42 73.2 °F 42.4 °F 30.07 in NNW 3.7 mph -999.0 mph 33 % 0 in
16:58 72.5 °F 43.3 °F 30.07 in NW 5.3 mph -999.0 mph 35 % 0 in
17:13 72.3 °F 45.3 °F 30.07 in North 3.7 mph -999.0 mph 38 % 0 in
17:28 72.0 °F 45.7 °F 30.07 in North 5.8 mph -999.0 mph 39 % 0 in
17:43 70.9 °F 46.0 °F 30.08 in NW 4.2 mph -999.0 mph 41 % 0 in
17:58 70.9 °F 43.3 °F 30.08 in WNW 1.7 mph -999.0 mph 37 % 0 in
18:14 70.0 °F 45.2 °F 30.08 in WNW 3.2 mph -999.0 mph 41 % 0 in
18:29 69.4 °F 45.3 °F 30.07 in NW 3.7 mph -999.0 mph 42 % 0 in
18:44 68.5 °F 45.1 °F 30.08 in NNW 3.7 mph -999.0 mph 43 % 0 in
18:59 68.5 °F 45.7 °F 30.08 in NW 3.7 mph -999.0 mph 44 % 0 in
19:15 66.2 °F 45.9 °F 30.08 in West 3.7 mph -999.0 mph 48 % 0 in
19:30 62.2 °F 45.4 °F 30.08 in NNW 2.7 mph -999.0 mph 54 % 0 in
19:45 60.3 °F 44.1 °F 30.09 in Calm   -999.0 mph 55 % 0 in
20:00 58.3 °F 43.6 °F 30.09 in Calm   -999.0 mph 58 % 0 in
20:16 56.7 °F 43.8 °F 30.09 in Calm   -999.0 mph 62 % 0 in
20:31 55.2 °F 42.4 °F 30.09 in Calm   -999.0 mph 62 % 0 in
20:46 54.0 °F 40.9 °F 30.10 in Calm   -999.0 mph 61 % 0 in
21:01 53.4 °F 39.4 °F 30.09 in Calm   -999.0 mph 59 % 0 in
21:16 52.7 °F 39.6 °F 30.10 in Calm   -999.0 mph 61 % 0 in
21:32 52.2 °F 39.2 °F 30.10 in SSE 1.1 mph -999.0 mph 61 % 0 in
21:47 51.6 °F 38.2 °F 30.11 in SE 1.7 mph -999.0 mph 60 % 0 in
22:02 51.1 °F 37.7 °F 30.11 in Calm   -999.0 mph 60 % 0 in
22:17 50.5 °F 37.1 °F 30.11 in South 1.7 mph -999.0 mph 60 % 0 in
22:33 50.0 °F 36.7 °F 30.12 in SE 1.1 mph -999.0 mph 60 % 0 in
22:48 49.8 °F 36.5 °F 30.12 in Calm   -999.0 mph 60 % 0 in
23:03 48.9 °F 36.9 °F 30.12 in Calm   -999.0 mph 63 % 0 in
23:18 48.2 °F 37.4 °F 30.12 in Calm   -999.0 mph 66 % 0 in
23:33 47.8 °F 37.8 °F 30.13 in Calm   -999.0 mph 68 % 0 in
23:49 47.5 °F 37.1 °F 30.12 in Calm   -999.0 mph 67 % 0 in
Big Bear CA Weather
Compliments of Weather Underground - 1.5 mb